Canaan, Connecticut
Current Conditions -  °F | °C
As of 9:54 AM on Sunday 23 Nov 2014 (Local Time) from KPSF Reporting Station
Overcast Overcast  
Wind Chill:   Ceiling: 3300
Heat Index:   Visibility: 10mi
Dew Point:   Wind: 3mph
Humidity: 82%   Direction: 360°N
Pressure: 30.11"   Gusts: NA
Location:  42.03°N, 73.33°W
Report Text: KPSF 231454Z AUTO 36003KT 10SM SCT027 OVC033 05/02 A3011 RMK AO2 SLP201 60000 T00500022 51009 $
Loading
Personal Weather Stations






























Interactive Weather Map New forecast layout! Learn more

10-Day Weather Forecast

Advertisements
Track Severe Weather on mobile